createdAt,value
2018-02-04T00:00:56.212Z,82.4
2018-02-04T00:02:05.411Z,83.25
2018-02-04T00:03:14.241Z,83.06
2018-02-04T00:04:23.340Z,82.31
2018-02-04T00:05:32.164Z,82.5
2018-02-04T00:06:40.994Z,81.93
2018-02-04T00:07:50.190Z,82.53
2018-02-04T00:08:59.018Z,81.74
2018-02-04T00:10:07.844Z,83.01
2018-02-04T00:11:16.680Z,83.72
2018-02-04T00:12:25.499Z,82.78
2018-02-04T00:13:34.327Z,83.34
2018-02-04T00:14:43.427Z,80.88
2018-02-04T00:15:52.253Z,81.26
2018-02-04T00:17:01.076Z,82.78
2018-02-04T00:18:09.902Z,84.52
2018-02-04T00:19:18.780Z,83.15
2018-02-04T00:20:27.607Z,82.59
2018-02-04T00:21:36.432Z,83.63
2018-02-04T00:22:45.258Z,83.25
2018-02-04T00:23:54.082Z,82.78
2018-02-04T00:25:03.332Z,83.06
2018-02-04T00:26:12.435Z,80.22
2018-02-04T00:27:21.543Z,82.06
2018-02-04T00:28:30.366Z,83.63
2018-02-04T00:29:39.192Z,82.78
2018-02-04T00:30:48.219Z,83.44
2018-02-04T00:31:57.045Z,82.12
2018-02-04T00:33:05.874Z,83.15
2018-02-04T00:34:14.695Z,82.31
2018-02-04T00:35:23.521Z,83.25
2018-02-04T00:36:32.348Z,84.29
2018-02-04T00:37:41.175Z,81.36
2018-02-04T00:38:50.272Z,82.97
2018-02-04T00:39:59.100Z,84.58
2018-02-04T00:41:07.925Z,83.2
2018-02-04T00:42:16.751Z,84.81
2018-02-04T00:43:25.848Z,85.9
2018-02-04T00:44:34.672Z,83.76
2018-02-04T00:45:43.500Z,84.33
2018-02-04T00:46:52.325Z,83.76
2018-02-04T00:48:01.400Z,83.67
2018-02-04T00:49:10.227Z,85.19
2018-02-04T00:50:19.050Z,84.77
2018-02-04T00:51:27.878Z,84.48
2018-02-04T00:52:36.706Z,85.75
2018-02-04T00:53:45.909Z,85.9
2018-02-04T00:54:54.731Z,85.9
2018-02-04T00:56:03.557Z,83.63
2018-02-04T00:57:12.384Z,85.33
2018-02-04T00:58:21.210Z,84.42
2018-02-04T00:59:30.305Z,85.52
2018-02-04T01:00:39.132Z,83.53
2018-02-04T01:01:47.957Z,89.25
2018-02-04T01:02:57.056Z,86.98
2018-02-04T01:04:05.882Z,85.9
2018-02-04T01:05:14.760Z,86.66
2018-02-04T01:06:23.586Z,87.32
2018-02-04T01:07:32.688Z,85.42
2018-02-04T01:08:41.516Z,85.99
2018-02-04T01:09:50.340Z,87.41
2018-02-04T01:10:59.314Z,87.46
2018-02-04T01:12:08.138Z,87.65
2018-02-04T01:13:16.962Z,86.56
2018-02-04T01:14:25.787Z,86.98
2018-02-04T01:15:34.613Z,86.18
2018-02-04T01:16:43.589Z,86.09
2018-02-04T01:17:52.688Z,86.75
2018-02-04T01:19:01.514Z,87.93
2018-02-04T01:20:10.343Z,85.8
2018-02-04T01:21:19.169Z,85.94
2018-02-04T01:22:28.293Z,85.28
2018-02-04T01:23:37.119Z,87.27
2018-02-04T01:24:45.944Z,86.22
2018-02-04T01:25:54.771Z,87.74
2018-02-04T01:27:03.874Z,90.16
2018-02-04T01:28:12.700Z,85.85
2018-02-04T01:29:21.526Z,88.87
2018-02-04T01:30:30.353Z,86.85
2018-02-04T01:31:39.179Z,87.51
2018-02-04T01:32:48.007Z,87.32
2018-02-04T01:33:56.981Z,86.6
2018-02-04T01:35:05.805Z,88.68
2018-02-04T01:36:14.632Z,86.18
2018-02-04T01:37:23.458Z,90.25
2018-02-04T01:38:32.282Z,89.92
2018-02-04T01:39:41.108Z,89.78
2018-02-04T01:40:49.933Z,86.56
2018-02-04T01:41:59.037Z,88.64
2018-02-04T01:43:07.864Z,91.81
2018-02-04T01:44:16.692Z,89.82
2018-02-04T01:45:25.619Z,92.1
2018-02-04T01:46:34.445Z,87.41
2018-02-04T01:47:43.541Z,89.59
2018-02-04T01:48:52.368Z,90.01
2018-02-04T01:50:01.196Z,86.7
2018-02-04T01:51:10.347Z,88.49
2018-02-04T01:52:19.176Z,87.51
2018-02-04T01:53:28.276Z,89.87
2018-02-04T01:54:37.102Z,89.63
2018-02-04T01:55:45.929Z,89.31
2018-02-04T01:56:54.906Z,90.25
2018-02-04T01:58:03.733Z,88.45
2018-02-04T01:59:12.558Z,91.1
2018-02-04T02:00:21.385Z,88.07
2018-02-04T02:01:30.211Z,90.25
2018-02-04T02:02:39.339Z,88.74
2018-02-04T02:03:48.165Z,87.6
2018-02-04T02:04:56.990Z,89.59
2018-02-04T02:06:05.816Z,88.07
2018-02-04T02:07:14.928Z,88.74
2018-02-04T02:08:23.753Z,89.59
2018-02-04T02:09:32.850Z,89.31
2018-02-04T02:10:41.676Z,88.36
2018-02-04T02:11:50.503Z,88.26
2018-02-04T02:12:59.330Z,88.83
2018-02-04T02:14:08.157Z,89.78
2018-02-04T02:15:16.985Z,89.54
2018-02-04T02:16:25.811Z,88.17
2018-02-04T02:17:34.638Z,88.07
2018-02-04T02:18:43.738Z,90.3
2018-02-04T02:19:52.665Z,86.98
2018-02-04T02:21:01.496Z,87.74
2018-02-04T02:22:10.322Z,86.18
2018-02-04T02:23:19.419Z,89.21
2018-02-04T02:24:28.248Z,89.21
2018-02-04T02:25:37.321Z,88.83
2018-02-04T02:26:46.149Z,87.79
2018-02-04T02:27:54.976Z,88.83
2018-02-04T02:29:03.805Z,88.36
2018-02-04T02:30:12.632Z,88.07
2018-02-04T02:31:21.758Z,88.74
2018-02-04T02:32:30.584Z,88.83
2018-02-04T02:33:39.410Z,86.47
2018-02-04T02:34:48.237Z,89.59
2018-02-04T02:35:57.063Z,88.36
2018-02-04T02:37:05.893Z,88.17
2018-02-04T02:38:14.996Z,88.45
2018-02-04T02:39:23.823Z,88.26
2018-02-04T02:40:32.655Z,87.6
2018-02-04T02:41:41.755Z,87.88
2018-02-04T02:42:50.684Z,85.24
2018-02-04T02:43:59.785Z,87.32
2018-02-04T02:45:08.890Z,87.6
2018-02-04T02:46:17.714Z,86.56
2018-02-04T02:47:27.093Z,87.23
2018-02-04T02:48:35.919Z,86.09
2018-02-04T02:49:44.747Z,87.23
2018-02-04T02:50:53.573Z,87.88
2018-02-04T02:52:02.682Z,85.61
2018-02-04T02:53:11.503Z,88.83
2018-02-04T02:54:20.428Z,89.21
2018-02-04T02:55:29.254Z,84.67
2018-02-04T02:56:38.078Z,88.83
2018-02-04T02:57:46.903Z,87.51
2018-02-04T02:58:55.731Z,88.07
2018-02-04T03:00:04.808Z,87.88
2018-02-04T03:01:13.634Z,87.7
2018-02-04T03:02:22.460Z,87.7
2018-02-04T03:03:31.287Z,86.56
2018-02-04T03:04:40.112Z,88.07
2018-02-04T03:05:49.139Z,86.85
2018-02-04T03:06:57.965Z,86.56
2018-02-04T03:08:07.344Z,87.23
2018-02-04T03:09:16.173Z,87.51
2018-02-04T03:10:24.997Z,87.41
2018-02-04T03:11:34.159Z,87.88
2018-02-04T03:12:42.952Z,86.94
2018-02-04T03:13:51.777Z,87.88
2018-02-04T03:15:00.606Z,87.04
2018-02-04T03:16:09.434Z,87.41
2018-02-04T03:17:18.411Z,87.23
2018-02-04T03:18:27.235Z,87.41
2018-02-04T03:19:36.063Z,86.66
2018-02-04T03:20:44.889Z,87.04
2018-02-04T03:21:53.714Z,86.85
2018-02-04T03:23:02.692Z,87.23
2018-02-04T03:24:11.516Z,87.04
2018-02-04T03:25:20.343Z,86.47
2018-02-04T03:26:29.171Z,87.7
2018-02-04T03:27:38.285Z,86.75
2018-02-04T03:28:47.157Z,85.9
2018-02-04T03:29:55.981Z,87.23
2018-02-04T03:31:04.814Z,85.9
2018-02-04T03:32:13.639Z,87.04
2018-02-04T03:33:22.464Z,86.09
2018-02-04T03:34:31.291Z,87.51
2018-02-04T03:35:40.117Z,86.66
2018-02-04T03:36:48.944Z,87.32
2018-02-04T03:37:57.770Z,85.33
2018-02-04T03:39:06.600Z,85.9
2018-02-04T03:40:15.424Z,86.85
2018-02-04T03:41:24.248Z,86.47
2018-02-04T03:42:33.077Z,86.94
2018-02-04T03:43:41.904Z,83.91
2018-02-04T03:44:50.731Z,85.9
2018-02-04T03:45:59.557Z,84.95
2018-02-04T03:47:08.383Z,84.39
2018-02-04T03:48:17.208Z,83.15
2018-02-04T03:49:26.036Z,81.36
2018-02-04T03:50:34.864Z,80.6
2018-02-04T03:51:43.689Z,78.42
2018-02-04T03:52:52.516Z,77.76
2018-02-04T03:54:01.344Z,76.25
2018-02-04T03:55:10.171Z,75.78
2018-02-04T03:56:19.273Z,74.45
2018-02-04T03:57:28.401Z,74.36
2018-02-04T03:58:37.226Z,72.47
2018-02-04T03:59:46.054Z,73.03
2018-02-04T04:00:54.881Z,73.79
2018-02-04T04:02:03.706Z,72.28
2018-02-04T04:03:12.531Z,71.8
2018-02-04T04:04:21.358Z,71.52
2018-02-04T04:05:30.185Z,71.9
2018-02-04T04:06:39.012Z,71.8
2018-02-04T04:07:47.837Z,71.8
2018-02-04T04:08:56.864Z,71.2
2018-02-04T04:10:05.689Z,70.29
2018-02-04T04:11:14.514Z,70.1
2018-02-04T04:12:23.339Z,67.83
2018-02-04T04:13:32.438Z,67.17
2018-02-04T04:14:41.364Z,68.3
2018-02-04T04:15:50.190Z,67.36
2018-02-04T04:16:59.017Z,65.09
2018-02-04T04:18:07.844Z,64.8
2018-02-04T04:19:16.670Z,64.71
2018-02-04T04:20:25.497Z,64.42
2018-02-04T04:21:34.326Z,64.61
2018-02-04T04:22:43.152Z,64.42
2018-02-04T04:23:51.977Z,63.95
2018-02-04T04:25:00.802Z,64.04
2018-02-04T04:26:09.727Z,63.76
2018-02-04T04:27:18.553Z,63.95
2018-02-04T04:28:27.378Z,63.39
2018-02-04T04:29:36.205Z,62.63
2018-02-04T04:30:45.036Z,60.99
2018-02-04T04:31:54.010Z,62.12
2018-02-04T04:33:03.110Z,61.49
2018-02-04T04:34:11.940Z,60.7
2018-02-04T04:35:20.763Z,59.95
2018-02-04T04:36:29.586Z,59.38
2018-02-04T04:37:38.414Z,59.76
2018-02-04T04:38:47.240Z,58.72
2018-02-04T04:39:56.065Z,56.92
2018-02-04T04:41:05.171Z,55.5
2018-02-04T04:42:13.999Z,53.61
2018-02-04T04:43:22.824Z,51.81
2018-02-04T04:44:31.651Z,51.43
2018-02-04T04:45:40.478Z,49.73
2018-02-04T04:46:49.303Z,48.03
2018-02-04T04:47:58.127Z,48.6
2018-02-04T04:49:07.103Z,48.6
2018-02-04T04:50:15.927Z,48.97
2018-02-04T04:51:24.753Z,49.07
2018-02-04T04:52:33.577Z,48.03
2018-02-04T04:53:42.403Z,48.88
2018-02-04T04:54:51.326Z,48.03
2018-02-04T04:56:00.152Z,47.85
2018-02-04T04:57:08.976Z,47.56
2018-02-04T04:58:18.075Z,46.8
2018-02-04T04:59:26.901Z,47.75
2018-02-04T05:00:35.975Z,47.47
2018-02-04T05:01:44.752Z,48.13
2018-02-04T05:02:53.577Z,48.79
2018-02-04T05:04:02.401Z,47.85
2018-02-04T05:05:11.228Z,45.48
2018-02-04T05:06:20.354Z,46.33
2018-02-04T05:07:29.179Z,46.33
2018-02-04T05:08:38.006Z,45.95
2018-02-04T05:09:46.831Z,46.23
2018-02-04T05:10:55.655Z,47.56
2018-02-04T05:12:05.410Z,47.66
2018-02-04T05:13:14.239Z,49.45
2018-02-04T05:14:23.057Z,48.97
2018-02-04T05:15:32.156Z,47.66
2018-02-04T05:16:40.983Z,48.88
2018-02-04T05:17:49.810Z,48.41
2018-02-04T05:18:58.636Z,48.13
2018-02-04T05:20:07.463Z,46.99
2018-02-04T05:21:16.296Z,47.75
2018-02-04T05:22:25.121Z,46.99
2018-02-04T05:23:33.997Z,45.67
2018-02-04T05:24:42.923Z,45.48
2018-02-04T05:25:51.747Z,46.04
2018-02-04T05:27:00.572Z,46.33
2018-02-04T05:28:09.404Z,46.99
2018-02-04T05:29:18.223Z,47.37
2018-02-04T05:30:27.048Z,47.18
2018-02-04T05:31:35.872Z,47.75
2018-02-04T05:32:44.703Z,47.56
2018-02-04T05:33:53.525Z,47.37
2018-02-04T05:35:02.350Z,46.52
2018-02-04T05:36:11.178Z,47.56
2018-02-04T05:37:20.002Z,46.99
2018-02-04T05:38:28.827Z,46.52
2018-02-04T05:39:37.654Z,46.8
2018-02-04T05:40:46.679Z,45.01
2018-02-04T05:41:55.505Z,46.14
2018-02-04T05:43:04.337Z,46.33
2018-02-04T05:44:13.163Z,45.39
2018-02-04T05:45:21.988Z,45.57
2018-02-04T05:46:30.914Z,45.29
2018-02-04T05:47:39.741Z,46.23
2018-02-04T05:48:48.566Z,45.76
2018-02-04T05:49:57.392Z,46.71
2018-02-04T05:51:06.218Z,46.52
2018-02-04T05:52:15.419Z,46.14
2018-02-04T05:53:24.243Z,46.23
2018-02-04T05:54:33.347Z,47.47
2018-02-04T05:55:42.175Z,47.56
2018-02-04T05:56:51.001Z,48.06
2018-02-04T05:57:59.927Z,47.58
2018-02-04T05:59:08.753Z,48.63
2018-02-04T06:00:17.579Z,48.82
2018-02-04T06:01:26.407Z,47.85
2018-02-04T06:02:35.232Z,47.66
2018-02-04T06:03:44.384Z,47.18
2018-02-04T06:04:53.209Z,46.61
2018-02-04T06:06:02.038Z,47.28
2018-02-04T06:07:10.863Z,46.99
2018-02-04T06:08:19.688Z,47.47
2018-02-04T06:09:28.613Z,46.42
2018-02-04T06:10:37.439Z,46.61
2018-02-04T06:11:46.264Z,46.33
2018-02-04T06:12:55.088Z,45.76
2018-02-04T06:14:03.915Z,46.52
2018-02-04T06:15:12.742Z,47.28
2018-02-04T06:16:21.569Z,46.99
2018-02-04T06:17:30.394Z,48.13
2018-02-04T06:18:39.221Z,46.83
2018-02-04T06:19:48.048Z,45.67
2018-02-04T06:20:57.023Z,45.6
2018-02-04T06:22:05.859Z,43.23
2018-02-04T06:23:14.684Z,43.23
2018-02-04T06:24:23.510Z,44.09
2018-02-04T06:25:32.338Z,44.56
2018-02-04T06:26:41.465Z,44.84
2018-02-04T06:27:50.294Z,45.22
2018-02-04T06:28:59.118Z,45.79
2018-02-04T06:30:07.946Z,46.73
2018-02-04T06:31:16.770Z,46.92
2018-02-04T06:32:25.747Z,46.83
2018-02-04T06:33:34.575Z,46.83
2018-02-04T06:34:43.400Z,47.3
2018-02-04T06:35:52.224Z,47.39
2018-02-04T06:37:01.050Z,47.49
2018-02-04T06:38:10.026Z,47.02
2018-02-04T06:39:18.850Z,46.26
2018-02-04T06:40:27.675Z,47.39
2018-02-04T06:41:36.500Z,47.87
2018-02-04T06:42:45.377Z,48.06
2018-02-04T06:43:54.304Z,47.49
2018-02-04T06:45:03.130Z,47.02
2018-02-04T06:46:12.246Z,46.92
2018-02-04T06:47:21.075Z,46.36
2018-02-04T06:48:29.903Z,47.02
2018-02-04T06:49:38.729Z,47.3
2018-02-04T06:50:47.557Z,47.58
2018-02-04T06:51:56.382Z,47.96
2018-02-04T06:53:05.251Z,47.39
2018-02-04T06:54:14.038Z,45.98
2018-02-04T06:55:23.014Z,45.88
2018-02-04T06:56:31.841Z,46.45
2018-02-04T06:57:40.940Z,46.92
2018-02-04T06:58:49.820Z,45.98
2018-02-04T06:59:58.919Z,44.65
2018-02-04T07:01:08.019Z,46.64
2018-02-04T07:02:16.846Z,46.55
2018-02-04T07:03:25.673Z,47.02
2018-02-04T07:04:34.503Z,47.2
2018-02-04T07:05:43.328Z,46.73
2018-02-04T07:06:52.585Z,47.3
2018-02-04T07:08:01.406Z,47.96
2018-02-04T07:09:10.233Z,47.96
2018-02-04T07:10:19.061Z,47.96
2018-02-04T07:11:27.887Z,46.36
2018-02-04T07:12:36.863Z,46.64
2018-02-04T07:13:45.688Z,46.73
2018-02-04T07:14:54.515Z,47.68
2018-02-04T07:16:03.341Z,47.87
2018-02-04T07:17:12.170Z,47.11
2018-02-04T07:18:21.044Z,46.64
2018-02-04T07:19:29.870Z,47.11
2018-02-04T07:20:38.697Z,47.87
2018-02-04T07:21:47.523Z,47.96
2018-02-04T07:22:56.347Z,47.87
2018-02-04T07:24:05.324Z,48.25
2018-02-04T07:25:14.151Z,47.39
2018-02-04T07:26:22.978Z,47.68
2018-02-04T07:27:31.805Z,47.39
2018-02-04T07:28:40.634Z,48.15
2018-02-04T07:29:49.459Z,47.96
2018-02-04T07:30:58.285Z,48.53
2018-02-04T07:32:07.112Z,49.48
2018-02-04T07:33:15.939Z,50.04
2018-02-04T07:34:24.765Z,50.8
2018-02-04T07:35:33.694Z,50.61
2018-02-04T07:36:42.518Z,50.99
2018-02-04T07:37:51.344Z,51.84
2018-02-04T07:39:00.172Z,51.37
2018-02-04T07:40:08.998Z,51.09
2018-02-04T07:41:17.924Z,51.18
2018-02-04T07:42:26.750Z,51.37
2018-02-04T07:43:35.577Z,50.99
2018-02-04T07:44:44.403Z,51.09
2018-02-04T07:45:53.226Z,49.29
2018-02-04T07:47:02.102Z,49.19
2018-02-04T07:48:10.929Z,47.49
2018-02-04T07:49:19.754Z,47.3
2018-02-04T07:50:28.582Z,46.83
2018-02-04T07:51:37.407Z,46.83
2018-02-04T07:52:46.233Z,46.36
2018-02-04T07:53:55.063Z,45.69
2018-02-04T07:55:03.884Z,47.2
2018-02-04T07:56:12.709Z,47.39
2018-02-04T07:57:21.534Z,47.49
2018-02-04T07:58:30.659Z,47.02
2018-02-04T07:59:39.484Z,47.96
2018-02-04T08:00:48.586Z,47.3
2018-02-04T08:01:57.428Z,47.49
2018-02-04T08:03:06.256Z,48.34
2018-02-04T08:04:15.231Z,50.61
2018-02-04T08:05:24.058Z,48.91
2018-02-04T08:06:32.885Z,50.61
2018-02-04T08:07:41.715Z,50.61
2018-02-04T08:08:50.821Z,50.71
2018-02-04T08:09:59.702Z,50.61
2018-02-04T08:11:08.530Z,50.23
2018-02-04T08:12:17.354Z,49.85
2018-02-04T08:13:26.180Z,49.38
2018-02-04T08:14:35.280Z,49.57
2018-02-04T08:15:44.405Z,50.23
2018-02-04T08:16:53.231Z,49.76
2018-02-04T08:18:02.060Z,50.52
2018-02-04T08:19:10.887Z,50.33
2018-02-04T08:20:19.714Z,51.09
2018-02-04T08:21:28.690Z,50.99
2018-02-04T08:22:37.789Z,50.23
2018-02-04T08:23:46.617Z,50.9
2018-02-04T08:24:55.443Z,50.8
2018-02-04T08:26:04.272Z,50.8
2018-02-04T08:27:13.249Z,52.41
2018-02-04T08:28:22.124Z,53.36
2018-02-04T08:29:30.912Z,53.36
2018-02-04T08:30:40.018Z,53.74
2018-02-04T08:31:49.122Z,53.92
2018-02-04T08:32:58.249Z,55.15
2018-02-04T08:34:07.078Z,55.53
2018-02-04T08:35:15.912Z,56.38
2018-02-04T08:36:24.733Z,57.14
2018-02-04T08:37:33.560Z,55.44
2018-02-04T08:38:42.539Z,56.67
2018-02-04T08:39:51.365Z,56.67
2018-02-04T08:41:00.192Z,55.44
2018-02-04T08:42:09.018Z,56.76
2018-02-04T08:43:17.844Z,56.67
2018-02-04T08:44:27.077Z,56.57
2018-02-04T08:45:35.902Z,57.23
2018-02-04T08:46:44.727Z,57.33
2018-02-04T08:47:53.555Z,57.33
2018-02-04T08:49:02.671Z,59.22
2018-02-04T08:50:11.596Z,59.22
2018-02-04T08:51:20.424Z,59.88
2018-02-04T08:52:29.256Z,61.11
2018-02-04T08:53:38.361Z,60.64
2018-02-04T08:54:47.181Z,62.06
2018-02-04T08:55:56.113Z,62.63
2018-02-04T08:57:04.941Z,63.01
2018-02-04T08:58:13.769Z,63.39
2018-02-04T08:59:22.593Z,64.14
2018-02-04T09:00:31.433Z,64.52
2018-02-04T09:01:40.411Z,64.52
2018-02-04T09:02:49.188Z,63.48
2018-02-04T09:03:58.014Z,64.61
2018-02-04T09:05:06.846Z,64.71
2018-02-04T09:06:15.672Z,64.71
2018-02-04T09:07:24.823Z,65.28
2018-02-04T09:08:33.653Z,64.71
2018-02-04T09:09:42.479Z,63.1
2018-02-04T09:10:51.307Z,64.52
2018-02-04T09:12:00.412Z,65.09
2018-02-04T09:13:09.235Z,65.37
2018-02-04T09:14:18.062Z,67.17
2018-02-04T09:15:26.942Z,65.66
2018-02-04T09:16:35.767Z,64.42
2018-02-04T09:17:44.597Z,63.85
2018-02-04T09:18:53.797Z,65.28
2018-02-04T09:20:02.664Z,65.56
2018-02-04T09:21:11.496Z,63.76
2018-02-04T09:22:20.322Z,65.09
2018-02-04T09:23:29.188Z,64.61
2018-02-04T09:24:38.309Z,65.09
2018-02-04T09:25:47.446Z,64.9
2018-02-04T09:26:56.550Z,64.42
2018-02-04T09:28:05.391Z,63.95
2018-02-04T09:29:14.220Z,64.71
2018-02-04T09:30:23.136Z,65.37
2018-02-04T09:31:31.962Z,63.67
2018-02-04T09:32:40.792Z,65.47
2018-02-04T09:33:49.620Z,64.8
2018-02-04T09:34:58.446Z,63.98
2018-02-04T09:36:07.278Z,63.76
2018-02-04T09:37:16.100Z,63.6
2018-02-04T09:38:25.007Z,64.23
2018-02-04T09:39:33.828Z,64.93
2018-02-04T09:40:42.657Z,64.93
2018-02-04T09:41:51.637Z,64.42
2018-02-04T09:43:00.468Z,64.61
2018-02-04T09:44:09.295Z,64.71
2018-02-04T09:45:18.119Z,64.71
2018-02-04T09:46:26.951Z,64.14
2018-02-04T09:47:35.780Z,63.48
2018-02-04T09:48:44.604Z,63.67
2018-02-04T09:49:53.428Z,64.14
2018-02-04T09:51:02.254Z,64.61
2018-02-04T09:52:11.104Z,61.3
2018-02-04T09:53:20.252Z,65.69
2018-02-04T09:54:29.079Z,64.55
2018-02-04T09:55:37.909Z,65.21
2018-02-04T09:56:46.763Z,64.83
2018-02-04T09:57:55.588Z,64.45
2018-02-04T09:59:04.476Z,64.61
2018-02-04T10:00:13.305Z,64.61
2018-02-04T10:01:22.137Z,63.95
2018-02-04T10:02:30.978Z,62.53
2018-02-04T10:03:39.821Z,62.63
2018-02-04T10:04:48.653Z,63.57
2018-02-04T10:05:57.871Z,62.44
2018-02-04T10:07:06.700Z,62.53
2018-02-04T10:08:15.524Z,62.75
2018-02-04T10:09:24.611Z,63.6
2018-02-04T10:10:33.886Z,63.39
2018-02-04T10:11:42.804Z,63.13
2018-02-04T10:12:51.791Z,64.64
2018-02-04T10:14:00.995Z,65.69
2018-02-04T10:15:10.134Z,65.31
2018-02-04T10:16:19.441Z,63.7
2018-02-04T10:17:28.350Z,65.5
2018-02-04T10:18:37.232Z,64.74
2018-02-04T10:19:46.265Z,64.64
2018-02-04T10:20:55.683Z,65.4
2018-02-04T10:22:04.782Z,64.93
2018-02-04T10:23:13.713Z,64.83
2018-02-04T10:24:22.632Z,65.31
2018-02-04T10:25:31.819Z,65.12
2018-02-04T10:26:41.697Z,65.02
2018-02-04T10:27:51.464Z,64.74
2018-02-04T10:29:00.543Z,65.88
2018-02-04T10:30:09.413Z,65.4
2018-02-04T10:31:18.410Z,66.73
2018-02-04T10:32:27.665Z,66.16
2018-02-04T10:33:36.598Z,66.82
2018-02-04T10:34:45.500Z,64.83
2018-02-04T10:35:54.375Z,65.88
2018-02-04T10:37:03.305Z,64.83
2018-02-04T10:38:12.240Z,66.73
2018-02-04T10:39:21.268Z,66.53
2018-02-04T10:40:30.465Z,65.69
2018-02-04T10:41:39.375Z,66.44
2018-02-04T10:42:48.342Z,67.39
2018-02-04T10:43:57.239Z,66.06
2018-02-04T10:45:06.136Z,64.93
2018-02-04T10:46:15.020Z,66.16
2018-02-04T10:47:24.274Z,68.24
2018-02-04T10:48:33.165Z,69.03
2018-02-04T10:49:42.053Z,69.7
2018-02-04T10:50:50.936Z,69.89
2018-02-04T10:51:59.834Z,69.13
2018-02-04T10:53:09.080Z,69.6
2018-02-04T10:54:17.948Z,69.51
2018-02-04T10:55:26.929Z,70.42
2018-02-04T10:56:35.789Z,69.38
2018-02-04T10:57:44.616Z,71.84
2018-02-04T10:58:53.595Z,71.88
2018-02-04T11:00:02.427Z,68.56
2018-02-04T11:01:11.255Z,70.93
2018-02-04T11:02:20.120Z,73.77
2018-02-04T11:03:29.099Z,71.59
2018-02-04T11:04:38.089Z,73.96
2018-02-04T11:05:47.255Z,72.16
2018-02-04T11:06:56.153Z,69.22
2018-02-04T11:08:05.018Z,75.09
2018-02-04T11:09:13.885Z,74.62
2018-02-04T11:10:22.952Z,74.71
2018-02-04T11:11:31.780Z,75.09
2018-02-04T11:12:40.653Z,75
2018-02-04T11:13:49.522Z,74.71
2018-02-04T11:14:58.404Z,75.57
2018-02-04T11:16:07.323Z,79.26
2018-02-04T11:17:16.195Z,79.36
2018-02-04T11:18:25.382Z,78.41
2018-02-04T11:19:34.314Z,77.37
2018-02-04T11:20:43.192Z,78.41
2018-02-04T11:21:52.535Z,75.28
2018-02-04T11:23:01.596Z,78.03
2018-02-04T11:24:10.782Z,79.74
2018-02-04T11:25:19.640Z,78.13
2018-02-04T11:26:28.471Z,78.31
2018-02-04T11:27:37.357Z,79.93
2018-02-04T11:28:46.213Z,77.75
2018-02-04T11:29:55.760Z,78.03
2018-02-04T11:31:04.888Z,79.36
2018-02-04T11:32:14.342Z,79.45
2018-02-04T11:35:01.985Z,77.46
2018-02-04T11:36:10.991Z,78.13
2018-02-04T11:37:19.881Z,78.13
2018-02-04T11:38:28.955Z,77.22
2018-02-04T11:39:38.300Z,76.27
2018-02-04T11:40:47.779Z,73.43
2018-02-04T11:41:56.893Z,75.89
2018-02-04T11:43:06.063Z,75.04
2018-02-04T11:44:15.462Z,73.24
2018-02-04T11:45:24.745Z,73.24
2018-02-04T11:46:33.957Z,74.66
2018-02-04T11:47:42.846Z,72.57
2018-02-04T11:48:51.746Z,73.05
2018-02-04T11:50:01.128Z,72
2018-02-04T11:51:10.315Z,70.3
2018-02-04T11:52:19.225Z,72
2018-02-04T11:53:28.290Z,71.25
2018-02-04T11:54:37.370Z,71.81
2018-02-04T11:55:46.236Z,70.78
2018-02-04T11:56:55.065Z,69.26
2018-02-04T11:58:03.895Z,70.39
2018-02-04T11:59:12.788Z,73.24
2018-02-04T12:00:21.650Z,70.68
2018-02-04T12:01:30.579Z,71.25
2018-02-04T12:02:39.409Z,69.73
2018-02-04T12:03:48.237Z,70.68
2018-02-04T12:04:57.065Z,68.79
2018-02-04T12:06:05.894Z,66.76
2018-02-04T12:07:14.824Z,65.72
2018-02-04T12:08:23.652Z,65.25
2018-02-04T12:09:32.481Z,66.47
2018-02-04T12:10:41.582Z,64.87
2018-02-04T12:11:50.410Z,66
2018-02-04T12:12:59.239Z,63.64
2018-02-04T12:14:08.071Z,62.12
2018-02-04T12:15:16.898Z,64.68
2018-02-04T12:16:25.726Z,64.68
2018-02-04T12:17:34.555Z,65.72
2018-02-04T12:18:43.534Z,65.72
2018-02-04T12:19:52.362Z,64.01
2018-02-04T12:21:01.192Z,65.28
2018-02-04T12:22:10.018Z,64.81
2018-02-04T12:23:18.845Z,64.96
2018-02-04T12:24:27.776Z,65.53
2018-02-04T12:25:36.604Z,65.44
2018-02-04T12:26:45.433Z,62.21
2018-02-04T12:27:54.261Z,63.45
2018-02-04T12:29:03.090Z,63.07
2018-02-04T12:30:11.916Z,64.3
2018-02-04T12:31:20.745Z,62.4
2018-02-04T12:32:29.574Z,64.81
2018-02-04T12:33:38.401Z,63.64
2018-02-04T12:34:47.229Z,63.92
2018-02-04T12:35:56.636Z,64.77
2018-02-04T12:37:05.467Z,62.88
2018-02-04T12:38:14.290Z,65.53
2018-02-04T12:39:23.122Z,64.58
2018-02-04T12:40:31.951Z,65.06
2018-02-04T12:41:40.780Z,65.06
2018-02-04T12:42:49.609Z,64.58
2018-02-04T12:43:58.438Z,63.64
2018-02-04T12:45:07.267Z,62.78
2018-02-04T12:46:16.094Z,62.88
2018-02-04T12:47:24.923Z,63.92
2018-02-04T12:48:33.750Z,63.45
2018-02-04T12:49:42.578Z,61.93
2018-02-04T12:50:51.406Z,63.92
2018-02-04T12:52:00.235Z,62.88
2018-02-04T12:53:09.168Z,64.52
2018-02-04T12:54:17.995Z,63.54
2018-02-04T12:55:26.820Z,62.78
2018-02-04T12:56:35.648Z,61.46
2018-02-04T12:57:44.480Z,62.12
2018-02-04T12:58:53.606Z,60.8
2018-02-04T13:00:02.435Z,61.83
2018-02-04T13:01:11.263Z,61.36
2018-02-04T13:02:20.093Z,61.93
2018-02-04T13:03:28.920Z,61.83
2018-02-04T13:04:37.749Z,59.56
2018-02-04T13:05:46.580Z,62.02
2018-02-04T13:06:55.403Z,60.99
2018-02-04T13:08:04.231Z,61.08
2018-02-04T13:09:13.058Z,62.78
2018-02-04T13:10:21.985Z,62.97
2018-02-04T13:11:30.815Z,62.78
2018-02-04T13:12:39.640Z,63.54
2018-02-04T13:13:48.468Z,63.73
2018-02-04T13:14:57.298Z,62.02
2018-02-04T13:16:06.137Z,63.26
2018-02-04T13:17:14.970Z,62.69
2018-02-04T13:18:23.798Z,61.18
2018-02-04T13:19:32.900Z,60.32
2018-02-04T13:20:41.727Z,60.7
2018-02-04T13:21:50.855Z,59.56
2018-02-04T13:22:59.681Z,60.41
2018-02-04T13:24:08.784Z,59
2018-02-04T13:25:17.612Z,59.47
2018-02-04T13:26:26.440Z,58.52
2018-02-04T13:27:35.268Z,61.55
2018-02-04T13:28:44.094Z,60.61
2018-02-04T13:29:52.971Z,61.93
2018-02-04T13:31:01.803Z,59.47
2018-02-04T13:32:10.633Z,61.36
2018-02-04T13:33:19.665Z,61.36
2018-02-04T13:34:28.492Z,59.66
2018-02-04T13:35:37.321Z,58.52
2018-02-04T13:36:46.146Z,57.1
2018-02-04T13:37:54.975Z,56.72
2018-02-04T13:39:03.957Z,56.63
2018-02-04T13:40:13.058Z,56.72
2018-02-04T13:41:21.885Z,56.44
2018-02-04T13:42:30.712Z,56.82
2018-02-04T13:43:39.577Z,56.82
2018-02-04T13:44:48.764Z,56.34
2018-02-04T13:45:57.802Z,57.1
2018-02-04T13:47:06.672Z,57.39
2018-02-04T13:48:15.624Z,55.3
2018-02-04T13:49:24.507Z,53.31
2018-02-04T13:50:33.442Z,53.59
2018-02-04T13:51:42.383Z,53.22
2018-02-04T13:52:51.273Z,54.45
2018-02-04T13:54:00.165Z,53.41
2018-02-04T13:55:09.080Z,53.97
2018-02-04T13:56:18.013Z,53.22
2018-02-04T13:57:26.898Z,53.31
2018-02-04T13:58:35.749Z,53.97
2018-02-04T13:59:44.622Z,53.41
2018-02-04T14:00:53.459Z,52.46
2018-02-04T14:02:03.291Z,54.35
2018-02-04T14:03:12.191Z,53.78
2018-02-04T14:04:21.084Z,53.88
2018-02-04T14:05:29.965Z,53.78
2018-02-04T14:06:38.810Z,53.31
2018-02-04T14:07:47.675Z,51.32
2018-02-04T14:08:56.521Z,52.56
2018-02-04T14:10:05.620Z,52.56
2018-02-04T14:11:14.449Z,51.42
2018-02-04T14:12:23.277Z,51.23
2018-02-04T14:13:32.529Z,51.51
2018-02-04T14:14:41.400Z,51.8
2018-02-04T14:15:50.233Z,51.42
2018-02-04T14:16:59.067Z,50.95
2018-02-04T14:18:08.243Z,50.95
2018-02-04T14:19:17.173Z,51.04
2018-02-04T14:20:26.002Z,49.62
2018-02-04T14:21:34.908Z,49.15
2018-02-04T14:22:43.761Z,49.05
2018-02-04T14:23:52.865Z,48.49
2018-02-04T14:25:01.710Z,49.15
2018-02-04T14:26:10.578Z,47.44
2018-02-04T14:27:19.409Z,49.05
2018-02-04T14:28:28.237Z,49.05
2018-02-04T14:29:37.123Z,48.01
2018-02-04T14:30:45.952Z,48.58
2018-02-04T14:31:54.781Z,48.68
2018-02-04T14:33:03.660Z,48.86
2018-02-04T14:34:12.529Z,48.86
2018-02-04T14:35:21.642Z,47.53
2018-02-04T14:36:30.584Z,48.1
2018-02-04T14:37:39.488Z,46.59
2018-02-04T14:38:48.313Z,47.06
2018-02-04T14:39:57.142Z,46.97
2018-02-04T14:41:05.971Z,46.4
2018-02-04T14:42:15.075Z,46.78
2018-02-04T14:43:23.902Z,46.97
2018-02-04T14:44:32.736Z,46.5
2018-02-04T14:45:41.560Z,45.64
2018-02-04T14:46:50.387Z,44.98
2018-02-04T14:47:59.369Z,45.45
2018-02-04T14:49:08.194Z,46.02
2018-02-04T14:50:17.022Z,45.55
2018-02-04T14:51:25.850Z,45.64
2018-02-04T14:52:34.679Z,45.83